Roatan, Honduras
Current Conditions -  °F | °C
As of 8:00 AM on Monday 22 Dec 2014 (Local Time) from MHLC Reporting Station
Clear Clear  
Wind Chill: 73°   Ceiling: Unl
Heat Index: 73°   Visibility: 6mi
Dew Point: 68°   Wind: 3mph
Humidity: 83%   Direction: 40°NE
Pressure: 29.91"   Gusts: NA
Location:  16.33°N, 86.52°W
Report Text: MHLC 221400Z 04003KT 9999 SCK 23/20 Q1013 A2993 NOSIG
Loading
Personal Weather Stations






























Interactive Weather Map New forecast layout! Learn more

10-Day Weather Forecast

Advertisements
Track Severe Weather on mobile